Time;durP1;ratioP1;P1;durP2;ratioP2;P2;SDS_P1;SDS_P2;PMS_P1;PMS_P2;Temp;Humidity;BMP_temperature;BMP_pressure;BME280_temperature;BME280_humidity;BME280_pressure;Samples;Min_cycle;Max_cycle;Signal;HPM_P1;HPM_P2
2021/05/15 00:01:26;;;;;;;2.23;1.73;;;25.10;58.30;;;;;;5073975;28;20455;-87
2021/05/15 00:03:52;;;;;;;1.77;1.30;;;25.20;58.30;;;;;;5073985;28;20440;-87
2021/05/15 00:06:19;;;;;;;1.50;1.40;;;25.20;58.30;;;;;;5073685;28;20447;-87
2021/05/15 00:08:45;;;;;;;1.93;1.50;;;25.10;58.20;;;;;;5073682;28;20454;-87
2021/05/15 00:11:12;;;;;;;1.50;1.40;;;25.10;58.20;;;;;;5074100;28;20450;-87
2021/05/15 00:13:38;;;;;;;1.20;1.10;;;25.10;58.20;;;;;;5073571;28;20467;-87
2021/05/15 00:16:05;;;;;;;1.93;1.30;;;25.20;58.30;;;;;;5074087;28;20451;-87
2021/05/15 00:18:31;;;;;;;1.50;1.37;;;25.10;58.20;;;;;;5073862;28;20474;-87
2021/05/15 00:20:58;;;;;;;1.30;1.20;;;25.00;58.20;;;;;;5073616;28;20491;-87
2021/05/15 00:23:25;;;;;;;1.23;1.13;;;25.00;58.20;;;;;;5073988;28;20474;-87
2021/05/15 00:25:51;;;;;;;1.87;1.30;;;25.00;58.20;;;;;;5073355;28;20452;-87
2021/05/15 00:28:17;;;;;;;1.40;1.20;;;25.00;58.10;;;;;;5073544;28;20527;-87
2021/05/15 00:30:44;;;;;;;1.57;1.47;;;25.00;58.20;;;;;;5073429;28;20947;-87
2021/05/15 00:33:10;;;;;;;2.50;1.10;;;25.00;58.10;;;;;;5073434;28;20436;-87
2021/05/15 00:35:36;;;;;;;1.30;1.20;;;25.00;58.10;;;;;;5073919;28;20939;-87
2021/05/15 00:38:02;;;;;;;1.80;1.30;;;25.00;58.10;;;;;;5073676;28;20819;-87
2021/05/15 00:40:29;;;;;;;1.30;1.20;;;25.00;58.10;;;;;;5074002;28;20490;-87
2021/05/15 00:42:56;;;;;;;1.40;1.30;;;25.00;58.20;;;;;;5077389;28;20459;-87
2021/05/15 00:45:22;;;;;;;1.30;1.20;;;25.00;58.10;;;;;;5077443;28;20640;-87
2021/05/15 00:47:48;;;;;;;1.43;1.33;;;25.00;58.10;;;;;;5077540;28;20452;-87
2021/05/15 00:50:14;;;;;;;1.40;1.20;;;25.00;58.10;;;;;;5077301;28;20483;-87
2021/05/15 00:52:41;;;;;;;1.40;1.30;;;25.00;58.10;;;;;;5077114;28;20440;-87
2021/05/15 00:55:10;;;;;;;1.30;1.20;;;25.00;58.10;;;;;;5059502;28;20443;-87
2021/05/15 00:57:38;;;;;;;1.20;1.07;;;25.00;58.10;;;;;;5077133;28;20466;-87
2021/05/15 01:00:08;;;;;;;1.77;1.23;;;25.20;58.20;;;;;;5076665;28;20475;-87
2021/05/15 01:02:34;;;;;;;1.43;1.27;;;25.00;58.10;;;;;;5076993;28;20454;-87
2021/05/15 01:05:00;;;;;;;1.10;0.97;;;25.00;58.10;;;;;;5077027;28;20441;-87
2021/05/15 01:07:26;;;;;;;1.30;1.20;;;25.00;58.10;;;;;;5076714;28;20507;-87
2021/05/15 01:09:54;;;;;;;1.50;1.33;;;25.00;58.10;;;;;;5077096;28;20438;-87
2021/05/15 01:12:20;;;;;;;1.13;1.03;;;25.00;58.00;;;;;;5076908;28;20437;-87
2021/05/15 01:14:48;;;;;;;1.30;1.20;;;25.10;58.10;;;;;;5076590;28;20473;-88
2021/05/15 01:17:15;;;;;;;1.13;1.03;;;25.00;58.00;;;;;;5076673;28;20872;-87
2021/05/15 01:19:42;;;;;;;1.90;1.13;;;25.00;58.00;;;;;;5058771;28;20476;-87
2021/05/15 01:22:10;;;;;;;1.47;1.30;;;25.00;58.00;;;;;;5076593;28;20439;-87
2021/05/15 01:24:39;;;;;;;1.30;1.10;;;25.10;58.10;;;;;;5076329;28;21000;-87
2021/05/15 01:27:06;;;;;;;2.10;1.30;;;25.00;58.00;;;;;;5077367;28;20466;-87
2021/05/15 01:29:34;;;;;;;1.20;1.10;;;25.00;58.00;;;;;;5076470;28;20453;-87
2021/05/15 01:32:00;;;;;;;1.40;1.10;;;25.00;58.00;;;;;;5076679;28;21044;-87
2021/05/15 01:34:27;;;;;;;1.37;1.27;;;25.00;58.00;;;;;;5076467;28;20441;-87
2021/05/15 01:36:53;;;;;;;1.27;1.17;;;25.00;58.00;;;;;;5076303;28;20437;-87
2021/05/15 01:39:20;;;;;;;1.37;1.20;;;24.90;57.90;;;;;;5076067;28;20964;-87
2021/05/15 01:41:47;;;;;;;1.23;1.13;;;25.00;58.00;;;;;;5076106;28;20919;-87
2021/05/15 01:44:15;;;;;;;1.47;1.37;;;24.90;57.90;;;;;;5075972;28;20467;-88
2021/05/15 01:46:42;;;;;;;1.40;1.30;;;24.90;57.90;;;;;;5076303;28;20450;-87
2021/05/15 01:49:08;;;;;;;1.30;1.20;;;24.90;57.90;;;;;;5075993;28;20443;-87
2021/05/15 01:51:34;;;;;;;1.20;1.00;;;24.90;57.90;;;;;;5075655;28;20436;-87
2021/05/15 01:54:01;;;;;;;1.23;1.13;;;25.00;58.00;;;;;;5076196;28;20821;-87
2021/05/15 01:56:30;;;;;;;1.03;0.93;;;24.90;57.90;;;;;;5075902;28;20436;-87
2021/05/15 01:58:56;;;;;;;2.03;1.10;;;24.90;57.90;;;;;;5075901;28;20533;-87
2021/05/15 02:01:25;;;;;;;1.30;1.10;;;25.10;58.00;;;;;;5075869;28;20492;-87
2021/05/15 02:03:51;;;;;;;1.57;1.40;;;24.90;57.90;;;;;;5076110;28;20446;-87
2021/05/15 02:06:19;;;;;;;1.20;1.10;;;24.90;57.80;;;;;;5076078;28;20453;-87
2021/05/15 02:08:46;;;;;;;1.20;1.10;;;24.90;57.90;;;;;;5075684;28;20443;-87
2021/05/15 02:11:15;;;;;;;1.23;1.13;;;24.90;57.80;;;;;;5075631;28;20452;-87
2021/05/15 02:13:44;;;;;;;1.20;1.00;;;24.90;57.80;;;;;;5075484;28;20982;-87
2021/05/15 02:16:10;;;;;;;1.50;1.00;;;25.00;57.90;;;;;;5075485;28;20498;-87
2021/05/15 02:18:36;;;;;;;1.17;1.07;;;24.90;57.80;;;;;;5075677;28;20451;-87
2021/05/15 02:21:03;;;;;;;1.33;1.17;;;24.90;57.80;;;;;;5075518;28;20487;-87
2021/05/15 02:23:30;;;;;;;1.37;1.27;;;24.90;57.80;;;;;;5075315;28;20443;-87
2021/05/15 02:25:56;;;;;;;1.40;1.10;;;24.90;57.80;;;;;;5075642;28;20779;-87
2021/05/15 02:28:23;;;;;;;1.40;1.10;;;24.90;57.80;;;;;;5075442;28;20442;-87
2021/05/15 02:30:51;;;;;;;1.30;1.20;;;24.90;57.80;;;;;;5075543;28;20949;-87
2021/05/15 02:33:17;;;;;;;1.33;1.13;;;24.90;57.80;;;;;;5075430;28;20940;-87
2021/05/15 02:35:43;;;;;;;1.37;1.17;;;24.90;57.80;;;;;;5075264;28;20439;-87
2021/05/15 02:38:12;;;;;;;1.30;1.10;;;24.90;57.80;;;;;;5075109;28;20449;-87
2021/05/15 02:40:39;;;;;;;1.40;1.30;;;24.90;57.80;;;;;;5075043;28;20482;-87
2021/05/15 02:43:05;;;;;;;1.20;0.97;;;24.90;57.80;;;;;;5075251;28;20479;-87
2021/05/15 02:45:32;;;;;;;2.20;1.10;;;24.80;57.70;;;;;;5075010;28;20439;-87
2021/05/15 02:48:00;;;;;;;1.40;1.30;;;24.90;57.80;;;;;;5075322;28;20494;-87
2021/05/15 02:50:26;;;;;;;1.10;1.00;;;25.00;57.80;;;;;;5074960;28;20835;-87
2021/05/15 02:52:53;;;;;;;1.13;1.03;;;24.90;57.80;;;;;;5075008;28;20447;-86
2021/05/15 02:55:21;;;;;;;1.20;1.10;;;24.80;57.70;;;;;;5074579;28;20440;-86
2021/05/15 02:57:48;;;;;;;1.70;1.40;;;25.00;57.90;;;;;;5074661;28;20475;-87
2021/05/15 03:00:17;;;;;;;1.20;1.10;;;24.80;57.80;;;;;;5074830;28;20540;-87
2021/05/15 03:02:44;;;;;;;1.30;1.20;;;24.80;57.80;;;;;;5074412;28;20443;-87
2021/05/15 03:05:14;;;;;;;1.30;1.20;;;24.80;57.80;;;;;;5074202;28;20442;-86
2021/05/15 03:07:40;;;;;;;1.20;1.10;;;24.80;57.70;;;;;;5074491;28;20996;-87
2021/05/15 03:10:09;;;;;;;1.13;1.03;;;25.00;57.80;;;;;;5074558;28;20814;-87
2021/05/15 03:12:36;;;;;;;1.20;1.10;;;24.80;57.70;;;;;;5074279;28;20435;-87
2021/05/15 03:15:04;;;;;;;1.20;1.10;;;24.80;57.70;;;;;;5074689;28;20998;-87
2021/05/15 03:17:31;;;;;;;1.40;1.30;;;24.80;57.70;;;;;;5074674;28;20807;-86
2021/05/15 03:19:57;;;;;;;1.43;1.20;;;24.80;57.80;;;;;;5074455;28;20474;-86
2021/05/15 03:22:24;;;;;;;1.40;1.30;;;24.90;57.90;;;;;;5074262;28;20482;-87
2021/05/15 03:24:50;;;;;;;1.40;1.10;;;24.90;57.90;;;;;;5074096;28;20472;-87
2021/05/15 03:27:17;;;;;;;1.57;1.43;;;24.80;57.80;;;;;;5074171;28;20588;-86
2021/05/15 03:29:43;;;;;;;1.60;1.20;;;24.80;57.80;;;;;;5073953;28;20443;-86
2021/05/15 03:32:10;;;;;;;1.30;1.10;;;24.80;57.80;;;;;;5074124;28;20942;-86
2021/05/15 03:34:37;;;;;;;1.20;1.10;;;24.70;57.80;;;;;;5074174;28;20436;-86
2021/05/15 03:37:04;;;;;;;1.10;1.00;;;24.70;57.90;;;;;;5074063;28;20431;-86
2021/05/15 03:39:31;;;;;;;1.10;1.00;;;24.70;57.80;;;;;;5073780;28;20996;-86
2021/05/15 03:41:57;;;;;;;1.30;1.10;;;24.90;58.00;;;;;;5073971;28;20447;-87
2021/05/15 03:44:23;;;;;;;1.10;0.83;;;24.70;57.80;;;;;;5073928;28;20545;-86
2021/05/15 03:46:50;;;;;;;1.23;1.13;;;24.70;57.80;;;;;;5073839;28;20450;-86
2021/05/15 03:49:16;;;;;;;1.20;1.00;;;24.70;57.90;;;;;;5074186;28;20542;-86
2021/05/15 03:51:43;;;;;;;1.00;0.90;;;24.70;57.80;;;;;;5073849;28;20436;-86
2021/05/15 03:54:10;;;;;;;1.20;1.00;;;24.80;58.00;;;;;;5073788;28;20499;-86
2021/05/15 03:56:37;;;;;;;1.20;1.10;;;24.70;57.80;;;;;;5073619;28;20938;-86
2021/05/15 03:59:04;;;;;;;1.20;1.10;;;24.80;57.90;;;;;;5073677;28;20529;-86
2021/05/15 04:01:30;;;;;;;1.10;0.90;;;24.90;58.00;;;;;;5073652;28;20491;-87
2021/05/15 04:03:57;;;;;;;1.10;1.00;;;24.80;57.90;;;;;;5073794;28;20447;-86
2021/05/15 04:06:23;;;;;;;1.37;1.27;;;24.70;57.80;;;;;;5073795;28;20443;-86
2021/05/15 04:08:49;;;;;;;1.27;1.07;;;24.70;57.90;;;;;;5073513;28;20447;-86
2021/05/15 04:11:15;;;;;;;1.40;0.90;;;24.70;57.90;;;;;;5073562;28;20454;-87
2021/05/15 04:13:47;;;;;;;1.20;1.10;;;24.70;57.90;;;;;;5073638;28;20896;-86
2021/05/15 04:16:17;;;;;;;1.20;1.10;;;24.70;57.90;;;;;;5073539;28;20444;-87
2021/05/15 04:18:43;;;;;;;1.30;1.00;;;24.70;57.90;;;;;;5073675;28;20454;-86
2021/05/15 04:21:10;;;;;;;1.00;0.80;;;24.80;58.00;;;;;;5073495;28;20482;-86
2021/05/15 04:23:36;;;;;;;1.43;1.17;;;24.70;57.90;;;;;;5073394;28;20482;-86
2021/05/15 04:26:03;;;;;;;1.00;0.80;;;24.80;57.90;;;;;;5073435;28;20438;-87
2021/05/15 04:28:30;;;;;;;1.20;0.90;;;24.70;57.90;;;;;;5073254;28;20503;-86
2021/05/15 04:30:58;;;;;;;1.10;1.00;;;24.70;57.90;;;;;;5073159;28;20941;-86
2021/05/15 04:33:24;;;;;;;1.00;0.90;;;24.70;57.90;;;;;;5073243;28;20443;-87
2021/05/15 04:35:51;;;;;;;1.00;0.90;;;24.70;57.90;;;;;;5073375;28;20434;-87
2021/05/15 04:38:19;;;;;;;1.10;1.00;;;24.80;58.00;;;;;;5073508;28;20443;-86
2021/05/15 04:40:45;;;;;;;1.20;1.03;;;24.80;58.00;;;;;;5073283;28;20493;-87
2021/05/15 04:43:13;;;;;;;1.17;1.07;;;24.70;57.90;;;;;;5073265;28;20460;-86
2021/05/15 04:45:40;;;;;;;1.00;0.80;;;24.80;58.00;;;;;;5073355;28;20450;-87
2021/05/15 04:48:07;;;;;;;1.10;1.00;;;24.70;57.90;;;;;;5073126;28;20455;-86
2021/05/15 04:50:34;;;;;;;1.20;1.07;;;24.70;57.90;;;;;;5072977;28;20449;-86
2021/05/15 04:53:00;;;;;;;1.20;1.10;;;24.70;57.90;;;;;;5073450;28;20445;-86
2021/05/15 04:55:26;;;;;;;1.30;0.90;;;24.90;58.00;;;;;;5073112;28;20447;-87
2021/05/15 04:57:53;;;;;;;1.10;1.00;;;24.80;58.00;;;;;;5072914;28;20452;-86
2021/05/15 05:00:19;;;;;;;1.20;1.10;;;24.70;57.90;;;;;;5073142;28;20560;-87
2021/05/15 05:02:46;;;;;;;1.07;0.97;;;24.70;57.90;;;;;;5073283;28;20454;-86
2021/05/15 05:05:13;;;;;;;1.00;0.80;;;24.80;58.00;;;;;;5072952;28;20439;-86
2021/05/15 05:07:39;;;;;;;1.10;0.90;;;24.70;58.00;;;;;;5073052;28;20439;-87
2021/05/15 05:10:09;;;;;;;1.20;1.00;;;24.70;58.00;;;;;;5073308;28;20490;-87
2021/05/15 05:12:36;;;;;;;1.00;0.87;;;24.70;58.00;;;;;;5073034;28;20534;-86
2021/05/15 05:15:02;;;;;;;1.10;0.90;;;24.70;58.00;;;;;;5073191;28;20447;-86
2021/05/15 05:17:28;;;;;;;1.30;1.00;;;24.70;58.60;;;;;;5073360;28;20443;-86
2021/05/15 05:19:55;;;;;;;1.10;0.87;;;24.70;58.00;;;;;;5072879;28;20471;-86
2021/05/15 05:22:22;;;;;;;1.20;1.00;;;24.70;58.00;;;;;;5072699;28;20443;-86
2021/05/15 05:24:48;;;;;;;1.20;0.90;;;24.70;57.90;;;;;;5072748;28;20831;-86
2021/05/15 05:27:18;;;;;;;1.20;1.10;;;24.70;58.00;;;;;;5074637;28;20961;-86
2021/05/15 05:29:44;;;;;;;1.20;1.10;;;24.70;58.00;;;;;;5076283;28;20470;-86
2021/05/15 05:32:11;;;;;;;1.17;0.90;;;24.70;58.10;;;;;;5076740;28;20467;-86
2021/05/15 05:34:37;;;;;;;1.10;0.80;;;24.70;58.10;;;;;;5076471;28;20450;-86
2021/05/15 05:37:04;;;;;;;1.00;0.80;;;24.70;58.10;;;;;;5076611;28;20930;-86
2021/05/15 05:39:32;;;;;;;1.40;1.13;;;24.70;58.20;;;;;;5076382;28;20446;-86
2021/05/15 05:41:58;;;;;;;1.17;0.80;;;24.70;58.20;;;;;;5076324;28;20443;-87
2021/05/15 05:44:25;;;;;;;1.30;1.00;;;24.70;58.20;;;;;;5076065;28;20859;-86
2021/05/15 05:46:51;;;;;;;1.33;1.20;;;24.70;58.20;;;;;;5076453;28;20448;-86
2021/05/15 05:49:18;;;;;;;1.30;1.20;;;24.70;58.30;;;;;;5076249;28;20797;-86
2021/05/15 05:51:44;;;;;;;1.00;0.90;;;24.70;58.30;;;;;;5076266;28;20521;-86
2021/05/15 05:54:10;;;;;;;1.10;0.97;;;24.70;58.30;;;;;;5076473;28;20472;-86
2021/05/15 05:56:37;;;;;;;1.10;1.00;;;24.60;58.30;;;;;;5076197;28;20442;-86
2021/05/15 05:59:04;;;;;;;1.20;1.10;;;24.60;58.30;;;;;;5075896;28;20439;-87
2021/05/15 06:01:30;;;;;;;1.20;1.10;;;24.70;58.30;;;;;;5075833;28;21015;-86
2021/05/15 06:03:56;;;;;;;1.00;0.90;;;24.60;58.30;;;;;;5075973;28;20443;-87
2021/05/15 06:06:23;;;;;;;1.27;0.93;;;24.70;58.40;;;;;;5075750;28;20455;-86
2021/05/15 06:08:49;;;;;;;1.67;0.90;;;24.60;58.30;;;;;;5075939;28;20798;-86
2021/05/15 06:11:15;;;;;;;1.00;0.80;;;24.70;58.40;;;;;;5075782;28;20435;-87
2021/05/15 06:13:43;;;;;;;1.57;1.00;;;24.60;58.40;;;;;;5075668;28;20458;-86
2021/05/15 06:16:09;;;;;;;1.10;0.93;;;24.60;58.40;;;;;;5075834;28;20939;-87
2021/05/15 06:18:35;;;;;;;1.30;1.10;;;24.60;58.40;;;;;;5075540;28;20443;-86
2021/05/15 06:21:01;;;;;;;1.17;1.07;;;24.60;58.50;;;;;;5075626;28;20983;-86
2021/05/15 06:23:28;;;;;;;1.23;1.13;;;24.60;58.50;;;;;;5075143;28;20451;-87
2021/05/15 06:25:54;;;;;;;1.30;1.00;;;24.80;58.70;;;;;;5075362;28;20443;-86
2021/05/15 06:28:20;;;;;;;1.00;0.90;;;24.60;58.60;;;;;;5075300;28;20446;-87
2021/05/15 06:30:47;;;;;;;1.00;0.90;;;24.70;58.70;;;;;;5075115;28;20952;-86
2021/05/15 06:33:14;;;;;;;1.20;1.03;;;24.60;58.70;;;;;;5075737;28;20491;-86
2021/05/15 06:35:40;;;;;;;1.13;0.90;;;24.60;58.70;;;;;;5075160;28;20465;-86
2021/05/15 06:38:07;;;;;;;1.00;0.90;;;24.60;58.70;;;;;;5075225;28;20447;-86
2021/05/15 06:40:33;;;;;;;1.10;1.00;;;24.60;58.70;;;;;;5075232;28;20555;-87
2021/05/15 06:43:00;;;;;;;1.20;1.00;;;24.60;59.40;;;;;;5074899;28;20465;-87
2021/05/15 06:45:26;;;;;;;1.10;1.00;;;24.60;58.80;;;;;;5075296;28;20478;-86
2021/05/15 06:47:56;;;;;;;1.00;0.80;;;24.60;58.90;;;;;;5074905;28;20489;-86
2021/05/15 06:50:22;;;;;;;1.20;1.10;;;24.70;59.00;;;;;;5074946;28;20914;-86
2021/05/15 06:52:49;;;;;;;1.20;1.00;;;24.70;59.00;;;;;;5074986;28;20443;-86
2021/05/15 06:55:15;;;;;;;1.33;1.20;;;24.70;59.00;;;;;;5074966;28;20445;-86
2021/05/15 06:57:41;;;;;;;1.30;1.20;;;24.60;58.90;;;;;;5074764;28;20443;-87
2021/05/15 07:00:09;;;;;;;1.40;1.30;;;24.60;59.00;;;;;;5074178;28;20486;-86
2021/05/15 07:02:35;;;;;;;2.47;1.83;;;24.60;58.90;;;;;;5074390;28;20445;-86
2021/05/15 07:05:02;;;;;;;4.20;3.00;;;24.60;59.40;;;;;;5073924;28;20442;-86
2021/05/15 07:07:29;;;;;;;7.53;2.77;;;24.60;59.10;;;;;;5074219;28;20449;-86
2021/05/15 07:09:55;;;;;;;5.73;2.20;;;24.50;59.10;;;;;;5074193;28;20463;-86
2021/05/15 07:12:22;;;;;;;3.60;1.50;;;24.50;59.10;;;;;;5071890;28;21013;-85
2021/05/15 07:14:48;;;;;;;2.30;1.60;;;24.50;59.00;;;;;;5062809;28;20538;-85
2021/05/15 07:17:15;;;;;;;1.70;1.23;;;24.50;59.00;;;;;;5073972;28;20449;-84
2021/05/15 07:19:41;;;;;;;1.57;1.40;;;24.50;58.90;;;;;;5073391;28;20430;-85
2021/05/15 07:22:09;;;;;;;1.73;1.40;;;24.60;59.00;;;;;;5073701;28;20439;-85
2021/05/15 07:24:35;;;;;;;1.40;1.30;;;24.60;58.90;;;;;;5073795;28;20477;-85
2021/05/15 07:27:01;;;;;;;1.80;1.67;;;24.60;59.00;;;;;;5074027;28;20444;-86
2021/05/15 07:29:28;;;;;;;1.83;1.30;;;24.60;59.00;;;;;;5073810;28;21028;-85
2021/05/15 07:31:54;;;;;;;1.60;1.33;;;24.60;59.00;;;;;;5073988;28;20487;-85
2021/05/15 07:34:21;;;;;;;1.70;1.60;;;24.60;59.10;;;;;;5074090;28;20445;-85
2021/05/15 07:36:47;;;;;;;1.50;1.40;;;24.60;59.10;;;;;;5074302;28;20444;-85
2021/05/15 07:39:14;;;;;;;2.33;1.77;;;24.60;59.20;;;;;;5074017;28;20453;-86
2021/05/15 07:41:41;;;;;;;1.90;1.53;;;24.70;59.30;;;;;;5073688;28;20499;-85
2021/05/15 07:44:08;;;;;;;5.33;1.83;;;24.60;59.30;;;;;;5074041;28;20470;-85
2021/05/15 07:46:34;;;;;;;1.63;1.50;;;24.70;59.40;;;;;;5073468;28;20448;-87
2021/05/15 07:49:01;;;;;;;1.90;1.80;;;24.60;59.30;;;;;;5073646;28;20528;-88
2021/05/15 07:51:27;;;;;;;7.73;7.00;;;24.70;59.60;;;;;;5073596;28;20596;-89
2021/05/15 07:53:55;;;;;;;8.40;7.53;;;24.70;60.40;;;;;;5073663;28;20496;-89
2021/05/15 07:56:22;;;;;;;9.57;7.03;;;24.60;60.60;;;;;;5073592;28;20937;-89
2021/05/15 07:58:48;;;;;;;9.90;6.47;;;24.50;60.20;;;;;;5073455;28;20453;-89
2021/05/15 08:01:15;;;;;;;7.03;6.47;;;24.40;60.10;;;;;;5073719;28;20561;-89
2021/05/15 08:03:41;;;;;;;5.97;5.47;;;24.30;60.20;;;;;;5073673;28;20449;-89
2021/05/15 08:06:08;;;;;;;6.27;5.00;;;24.20;60.00;;;;;;5073641;28;20441;-92
2021/05/15 08:08:34;;;;;;;5.37;4.80;;;24.10;60.10;;;;;;5073198;28;20537;-89
2021/05/15 08:11:00;;;;;;;4.10;3.80;;;24.10;60.30;;;;;;5073256;28;20450;-88
2021/05/15 08:13:27;;;;;;;4.33;4.00;;;24.10;60.40;;;;;;5073280;28;20473;-89
2021/05/15 08:15:54;;;;;;;4.00;3.70;;;24.20;60.30;;;;;;5073567;28;20450;-90
2021/05/15 08:18:20;;;;;;;4.10;3.27;;;24.20;60.00;;;;;;5073259;28;20531;-89
2021/05/15 08:20:47;;;;;;;7.93;4.10;;;24.30;60.20;;;;;;5073500;28;20497;-89
2021/05/15 08:23:14;;;;;;;5.33;3.20;;;24.30;60.30;;;;;;5073280;28;20460;-90
2021/05/15 08:25:41;;;;;;;3.60;3.30;;;24.30;60.20;;;;;;5073511;28;20529;-89
2021/05/15 08:28:11;;;;;;;3.27;3.07;;;24.40;60.30;;;;;;5073370;28;20503;-88
2021/05/15 08:30:39;;;;;;;3.57;3.30;;;24.40;60.30;;;;;;5072818;28;20441;-89
2021/05/15 08:33:07;;;;;;;3.00;2.80;;;24.50;60.40;;;;;;5073204;28;20597;-89
2021/05/15 08:35:34;;;;;;;3.60;3.40;;;24.50;60.30;;;;;;5072947;28;20931;-89
2021/05/15 08:38:02;;;;;;;4.23;3.17;;;24.50;61.20;;;;;;5073048;28;20434;-89
2021/05/15 08:40:29;;;;;;;3.30;3.00;;;24.50;59.90;;;;;;5073205;28;20562;-88
2021/05/15 08:42:56;;;;;;;2.70;2.50;;;24.50;60.00;;;;;;5072929;28;20903;-87
2021/05/15 08:45:24;;;;;;;6.87;4.40;;;24.60;59.80;;;;;;5073012;28;20936;-88
2021/05/15 08:47:53;;;;;;;4.43;4.10;;;24.60;60.40;;;;;;5073103;28;20446;-88
2021/05/15 08:50:21;;;;;;;6.17;5.50;;;24.60;60.50;;;;;;5073328;28;20600;-88
2021/05/15 08:52:49;;;;;;;4.77;4.47;;;24.60;60.60;;;;;;5073123;28;20442;-87
2021/05/15 08:55:17;;;;;;;4.70;4.40;;;24.50;60.20;;;;;;5073273;28;20498;-88
2021/05/15 08:57:44;;;;;;;4.70;4.37;;;24.50;60.60;;;;;;5073283;28;20803;-88
2021/05/15 09:00:15;;;;;;;4.57;4.27;;;24.40;61.00;;;;;;5072804;28;20474;-88
2021/05/15 09:02:42;;;;;;;4.50;4.20;;;24.40;61.20;;;;;;5075871;28;20816;-88
2021/05/15 09:05:12;;;;;;;4.07;3.77;;;24.40;61.60;;;;;;5077140;28;20938;-89
2021/05/15 09:07:38;;;;;;;4.67;4.27;;;24.30;61.40;;;;;;5077005;28;20446;-87
2021/05/15 09:10:08;;;;;;;6.03;4.57;;;24.30;61.50;;;;;;5076437;28;20953;-86
2021/05/15 09:12:34;;;;;;;4.33;3.80;;;24.30;61.80;;;;;;5076759;28;20485;-89
2021/05/15 09:15:04;;;;;;;6.20;5.00;;;24.30;62.10;;;;;;5076651;28;20530;-85
2021/05/15 09:17:42;;;;;;;8.10;4.30;;;24.30;61.40;;;;;;5076523;28;20442;-84
2021/05/15 09:20:22;;;;;;;7.60;4.63;;;24.30;60.40;;;;;;5076768;28;20508;-88
2021/05/15 09:22:48;;;;;;;6.07;4.10;;;24.30;60.10;;;;;;5076684;28;20432;-84
2021/05/15 09:25:15;;;;;;;3.27;3.07;;;24.30;60.10;;;;;;5076212;28;20470;-85
2021/05/15 09:27:42;;;;;;;5.10;2.60;;;24.20;61.00;;;;;;5076499;28;20448;-84
2021/05/15 09:30:09;;;;;;;2.43;2.23;;;24.30;60.20;;;;;;5076227;28;20438;-84
2021/05/15 09:32:35;;;;;;;4.80;1.90;;;24.30;60.00;;;;;;5076503;28;20433;-84
2021/05/15 09:35:05;;;;;;;4.60;1.60;;;24.20;59.80;;;;;;5076235;28;20490;-84
2021/05/15 09:37:35;;;;;;;3.70;1.97;;;24.50;59.80;;;;;;5076444;28;20449;-84
2021/05/15 09:40:15;;;;;;;2.07;1.87;;;24.60;59.70;;;;;;5076071;28;20438;-84
2021/05/15 09:42:49;;;;;;;3.10;1.80;;;24.50;59.50;;;;;;5076166;28;20465;-84
2021/05/15 09:45:26;;;;;;;2.03;1.60;;;24.60;59.50;;;;;;5076343;28;20790;-84
2021/05/15 09:47:54;;;;;;;2.03;1.40;;;24.60;59.40;;;;;;5076316;28;20429;-85
2021/05/15 09:50:21;;;;;;;2.10;1.77;;;24.60;59.50;;;;;;5075918;28;20451;-85
2021/05/15 09:52:49;;;;;;;1.93;1.57;;;24.60;59.40;;;;;;5075845;28;20948;-84
2021/05/15 09:55:16;;;;;;;1.60;1.50;;;24.70;59.40;;;;;;5076028;28;20439;-85
2021/05/15 09:57:43;;;;;;;2.10;1.60;;;24.70;59.30;;;;;;5075834;28;20808;-85
2021/05/15 10:00:14;;;;;;;3.00;1.63;;;24.70;59.30;;;;;;5075733;28;20455;-85
2021/05/15 10:02:40;;;;;;;1.90;1.70;;;24.70;59.20;;;;;;5075595;28;20450;-84
2021/05/15 10:05:10;;;;;;;5.63;1.40;;;24.70;59.30;;;;;;5075927;28;20450;-84
2021/05/15 10:07:38;;;;;;;2.33;1.90;;;24.70;59.30;;;;;;5075707;28;20442;-84
2021/05/15 10:10:08;;;;;;;1.97;1.87;;;24.70;59.30;;;;;;5075464;28;20451;-84
2021/05/15 10:12:36;;;;;;;2.10;1.90;;;24.70;59.40;;;;;;5075616;28;20458;-84
2021/05/15 10:15:03;;;;;;;1.87;1.73;;;24.70;59.40;;;;;;5075435;28;20786;-84
2021/05/15 10:17:30;;;;;;;2.47;1.63;;;24.70;59.40;;;;;;5057624;28;20504;-82
2021/05/15 10:19:56;;;;;;;1.83;1.73;;;24.70;59.40;;;;;;5057850;28;20539;-84
2021/05/15 10:22:23;;;;;;;1.77;1.50;;;24.70;59.40;;;;;;5075596;28;20447;-85
2021/05/15 10:24:50;;;;;;;2.30;1.50;;;24.70;59.40;;;;;;5075032;28;20475;-86
2021/05/15 10:27:18;;;;;;;1.83;1.60;;;24.70;59.30;;;;;;5075294;28;20442;-85
2021/05/15 10:29:49;;;;;;;1.50;1.40;;;24.70;59.40;;;;;;5075196;28;20439;-85
2021/05/15 10:32:25;;;;;;;1.87;1.67;;;24.70;59.30;;;;;;5075233;28;20458;-91
2021/05/15 10:34:59;;;;;;;3.33;3.07;;;24.70;59.00;;;;;;5075093;28;20534;-84
2021/05/15 10:37:26;;;;;;;2.83;2.17;;;24.80;60.30;;;;;;5075311;28;20791;-84
2021/05/15 10:39:52;;;;;;;3.27;2.27;;;24.80;60.00;;;;;;5075512;28;20959;-85
2021/05/15 10:42:28;;;;;;;2.07;1.43;;;24.80;59.90;;;;;;5075012;28;20491;-84
2021/05/15 10:44:55;;;;;;;3.13;1.87;;;24.80;59.90;;;;;;5075157;28;20446;-88
2021/05/15 10:47:22;;;;;;;3.23;1.50;;;24.80;59.70;;;;;;5075095;28;20447;-86
2021/05/15 10:49:49;;;;;;;4.00;1.57;;;24.80;59.70;;;;;;5074807;28;20849;-86
2021/05/15 10:52:17;;;;;;;1.80;1.60;;;24.80;59.70;;;;;;5074725;28;20538;-86
2021/05/15 10:54:44;;;;;;;2.17;2.00;;;24.80;59.80;;;;;;5074759;28;20438;-87
2021/05/15 10:57:13;;;;;;;2.43;1.60;;;24.90;60.00;;;;;;5074909;28;20451;-86
2021/05/15 10:59:42;;;;;;;1.50;1.40;;;24.90;60.00;;;;;;5074736;28;20442;-87
2021/05/15 11:02:09;;;;;;;1.40;1.30;;;25.00;60.10;;;;;;5074496;28;20483;-85
2021/05/15 11:04:47;;;;;;;2.03;1.57;;;25.00;60.20;;;;;;5074672;28;20439;-84
2021/05/15 11:07:13;;;;;;;2.53;1.60;;;25.10;60.40;;;;;;5074685;28;20442;-87
2021/05/15 11:09:53;;;;;;;1.60;1.47;;;25.10;60.00;;;;;;5074569;28;20443;-85
2021/05/15 11:12:21;;;;;;;2.93;1.50;;;25.10;60.00;;;;;;5074329;28;20817;-85
2021/05/15 11:14:51;;;;;;;1.43;1.30;;;25.20;60.20;;;;;;5074275;28;20470;-85
2021/05/15 11:17:27;;;;;;;1.70;1.50;;;25.20;60.20;;;;;;5074673;28;20440;-86
2021/05/15 11:19:57;;;;;;;1.63;1.53;;;25.30;60.30;;;;;;5074492;28;20471;-90
2021/05/15 11:22:39;;;;;;;2.40;1.37;;;25.40;60.20;;;;;;5074547;28;20482;-84
2021/05/15 11:25:18;;;;;;;1.40;1.30;;;25.30;60.40;;;;;;5073251;28;20479;-86
2021/05/15 11:27:45;;;;;;;4.73;2.00;;;25.20;60.30;;;;;;5074351;28;20471;-82
2021/05/15 11:30:17;;;;;;;2.30;1.90;;;25.20;60.10;;;;;;5074079;28;20833;-82
2021/05/15 11:32:55;;;;;;;1.70;1.60;;;25.30;59.90;;;;;;5073993;28;20538;-86
2021/05/15 11:35:21;;;;;;;1.93;1.30;;;25.30;59.70;;;;;;5074064;28;20435;-82
2021/05/15 11:37:47;;;;;;;5.27;1.40;;;25.20;59.70;;;;;;5073862;28;20451;-85
2021/05/15 11:40:15;;;;;;;2.80;1.57;;;25.20;59.70;;;;;;5073787;28;20436;-85
2021/05/15 11:42:41;;;;;;;6.03;1.57;;;25.20;59.60;;;;;;5073990;28;20520;-85
2021/05/15 11:45:09;;;;;;;2.37;1.53;;;25.10;59.50;;;;;;5074026;28;20446;-85
2021/05/15 11:47:36;;;;;;;1.50;1.30;;;25.10;59.50;;;;;;5073824;28;20470;-83
2021/05/15 11:50:03;;;;;;;3.43;1.70;;;25.10;59.60;;;;;;5073737;28;20811;-86
2021/05/15 11:52:32;;;;;;;3.20;1.30;;;25.10;59.60;;;;;;5074065;28;20450;-88
2021/05/15 11:54:58;;;;;;;4.37;1.77;;;25.00;59.50;;;;;;5073692;28;20931;-85
2021/05/15 11:57:28;;;;;;;3.63;1.40;;;25.00;59.40;;;;;;5074035;28;20440;-91
2021/05/15 12:00:07;;;;;;;1.90;1.40;;;25.00;59.50;;;;;;5074182;28;20440;-85
2021/05/15 12:02:33;;;;;;;2.17;1.33;;;25.00;59.50;;;;;;5073515;28;20489;-84
2021/05/15 12:05:00;;;;;;;2.50;1.43;;;25.00;59.60;;;;;;5073431;28;20965;-87
2021/05/15 12:07:27;;;;;;;2.13;1.20;;;25.00;59.60;;;;;;5073391;28;20431;-85
2021/05/15 12:09:53;;;;;;;1.93;1.50;;;25.00;59.60;;;;;;5073237;28;20777;-83
2021/05/15 12:12:21;;;;;;;6.63;1.13;;;25.00;59.70;;;;;;5073148;28;20461;-85
2021/05/15 12:14:48;;;;;;;2.03;1.30;;;25.00;59.80;;;;;;5073413;28;20940;-84
2021/05/15 12:17:16;;;;;;;5.73;1.33;;;25.00;59.60;;;;;;5073838;28;20464;-84
2021/05/15 12:19:53;;;;;;;1.30;1.13;;;25.00;59.60;;;;;;5073359;28;20797;-84
2021/05/15 12:22:26;;;;;;;4.73;1.20;;;25.10;59.60;;;;;;5066353;28;21117;-84
2021/05/15 12:24:52;;;;;;;1.90;1.10;;;25.00;59.50;;;;;;5073828;28;20468;-84
2021/05/15 12:27:21;;;;;;;1.50;1.30;;;25.00;59.50;;;;;;5074036;28;20803;-85
2021/05/15 12:29:59;;;;;;;2.90;1.10;;;25.00;59.60;;;;;;5073602;28;20443;-84
2021/05/15 12:32:26;;;;;;;1.57;1.40;;;25.00;59.90;;;;;;5073598;28;20443;-84
2021/05/15 12:34:58;;;;;;;2.23;1.23;;;25.00;59.60;;;;;;5073578;28;21001;-84
2021/05/15 12:37:34;;;;;;;1.90;1.10;;;25.00;59.60;;;;;;5077178;28;20433;-84
2021/05/15 12:40:03;;;;;;;2.63;1.30;;;25.00;59.60;;;;;;5067599;28;20439;-84
2021/05/15 12:42:31;;;;;;;2.13;1.33;;;25.00;59.60;;;;;;5077724;28;20847;-84
2021/05/15 12:45:07;;;;;;;2.57;0.90;;;25.00;59.70;;;;;;5077596;28;21015;-84
2021/05/15 12:47:34;;;;;;;1.50;1.40;;;25.10;59.70;;;;;;5057594;28;20447;-86
2021/05/15 12:50:00;;;;;;;1.30;1.17;;;25.00;59.80;;;;;;5057167;28;20444;-85